Aérodrome :
LOGIN :

S'inscrire | Disclaimer

   EN    FR    IT 

 










Légende :    VFR   VFR Marginal   IFR   IFR Intensif   IFR Très Intensif
Visi : 
Plafond : 
>= 8 km
>= 3000ft
5 à 8 km
1000 à 3000 ft
1500m à 5 km
500 à 1000 ft
800 à 1500m
200 à 500 ft
< 800m
< 200 ft
Symboles :   Orages  Brouillard  Fortes neiges  Fortes précipitations  Vent > 20 kt
SIGMETs :   Divers  Orages  Givrage  Turbulence  Onde Orograph.  Cendres Volcan.







- Altitude de l'aérodrome : 45 ft
- Code IATA : CEG
- Voir les cartes d'approche


EGNR - Hawarden Chester

DERNIER METAR :
  • 200850Z 26012KT 8000 -SHRA SCT020 BKN047 17/15 Q1003

METARs EXPIRÉS :
  • 200820Z 26012KT 230V300 9999 VCSH SCT019 BKN049 19/14 Q1002
  • 200750Z 24011KT 9999 VCSH SCT019 SCT035 18/14 Q1002
  • 200720Z 20010KT 9999 VCSH SCT018 BKN025 17/14 Q1001
  • 200650Z 18013KT 9999 VCSH BKN020 16/14 Q1001

TAF TAF EGNR
Valide du 20 à 09h jusqu'au 20 à 18h UTC


200800Z 2009/2018 20010KT 9999 SCT020
BECMG 2009/2012 27013KT
TEMPO 2009/2012 6000 -SHRA BKN010
Pas de NOTAMs connus pour ce terrain.



MET'MAP, la Météo Aéronautique d'un coup d'oeil ! - Copyright ORBIFLY Décembre 2007 - Disclaimer

ORBIFLY MET'MAP TEAM :

Programmation & Développement : Alexandra Zaïnal
Conception & Développement : Baudouin d'Aumeries
Co-Programmation & Développement : Marc-Olivier Méhu
Soutien technique & logistique : Manuel Goepfert

Contact : metmap@orbifly.com




SOURCES & CREDITS :

   NOAA